createdAt,value
2022-12-22T00:02:12.608Z,100398.31
2022-12-22T00:05:16.651Z,100383.41
2022-12-22T00:08:21.281Z,100395.56
2022-12-22T00:11:29.795Z,100394.69
2022-12-22T00:14:34.229Z,100399.31
2022-12-22T00:17:43.776Z,100389.47
2022-12-22T00:20:47.949Z,100392.72
2022-12-22T00:23:52.585Z,100380.69
2022-12-22T00:26:59.116Z,100384.09
2022-12-22T00:30:04.107Z,100386.66
2022-12-22T00:33:08.717Z,100392.66
2022-12-22T00:36:12.971Z,100378.81
2022-12-22T00:39:17.097Z,100381.41
2022-12-22T00:42:23.020Z,100364.81
2022-12-22T00:45:28.231Z,100365.63
2022-12-22T00:48:40.261Z,100372.66
2022-12-22T00:51:45.017Z,100370.81
2022-12-22T00:54:49.767Z,100358.56
2022-12-22T00:57:55.122Z,100368.31
2022-12-22T01:00:58.981Z,100364.19
2022-12-22T01:04:03.713Z,100355.47
2022-12-22T01:07:07.889Z,100356.41
2022-12-22T01:10:12.739Z,100361.72
2022-12-22T01:13:18.588Z,100364.50
2022-12-22T01:16:23.298Z,100353.97
2022-12-22T01:19:27.304Z,100349.34
2022-12-22T01:22:34.763Z,100345.78
2022-12-22T01:25:38.853Z,100340.53
2022-12-22T01:28:44.489Z,100341.19
2022-12-22T01:31:51.203Z,100325.69
2022-12-22T01:34:57.038Z,100321.31
2022-12-22T01:38:01.378Z,100323.81
2022-12-22T01:41:05.982Z,100331.53
2022-12-22T01:44:11.369Z,100333.50
2022-12-22T01:47:51.350Z,100337.59
2022-12-22T01:50:55.656Z,100330.72
2022-12-22T01:54:00.817Z,100322.84
2022-12-22T01:57:06.595Z,100318.25
2022-12-22T02:00:12.529Z,100300.75
2022-12-22T02:03:16.885Z,100298.06
2022-12-22T02:06:32.546Z,100299.94
2022-12-22T02:09:50.603Z,100304.25
2022-12-22T02:13:00.956Z,100294.63
2022-12-22T02:16:10.410Z,100278.97
2022-12-22T02:19:21.587Z,100277.13
2022-12-22T02:22:36.243Z,100271.84
2022-12-22T02:25:49.188Z,100260.28
2022-12-22T02:28:55.480Z,100248.13
2022-12-22T02:32:00.716Z,100238.56
2022-12-22T02:35:04.846Z,100230.53
2022-12-22T02:38:29.650Z,100237.56
2022-12-22T02:41:42.898Z,100243.91
2022-12-22T02:45:04.313Z,100246.63
2022-12-22T02:48:17.211Z,100250.97
2022-12-22T02:51:25.958Z,100257.09
2022-12-22T02:54:32.552Z,100241.56
2022-12-22T02:57:37.834Z,100235.91
2022-12-22T03:00:43.690Z,100237.84
2022-12-22T03:03:48.019Z,100238.66
2022-12-22T03:06:52.204Z,100227.97
2022-12-22T03:09:57.014Z,100226.25
2022-12-22T03:13:01.422Z,100215.69
2022-12-22T03:16:06.865Z,100218.31
2022-12-22T03:19:11.062Z,100208.69
2022-12-22T03:22:15.400Z,100200.00
2022-12-22T03:25:19.553Z,100200.06
2022-12-22T03:28:08.120Z,100202.50
2022-12-22T03:30:58.724Z,100198.66
2022-12-22T03:33:45.412Z,100198.53
2022-12-22T03:36:32.335Z,100192.84
2022-12-22T03:39:19.095Z,100187.72
2022-12-22T03:42:23.096Z,100181.50
2022-12-22T03:45:28.834Z,100181.31
2022-12-22T03:48:16.989Z,100168.09
2022-12-22T03:51:03.976Z,100164.78
2022-12-22T03:53:50.689Z,100169.88
2022-12-22T03:56:38.454Z,100171.72
2022-12-22T03:59:25.186Z,100165.75
2022-12-22T04:02:12.099Z,100160.66
2022-12-22T04:05:00.146Z,100165.09
2022-12-22T04:07:47.134Z,100148.59
2022-12-22T04:10:51.724Z,100146.06
2022-12-22T04:13:38.525Z,100141.22
2022-12-22T04:16:25.378Z,100136.06
2022-12-22T04:19:12.238Z,100146.47
2022-12-22T04:22:01.468Z,100137.84
2022-12-22T04:24:48.080Z,100134.25
2022-12-22T04:27:35.104Z,100027.94
2022-12-22T04:30:23.961Z,100141.00
2022-12-22T04:33:11.281Z,100148.97
2022-12-22T04:35:57.862Z,100149.53
2022-12-22T04:38:46.685Z,100146.00
2022-12-22T04:41:33.282Z,100140.81
2022-12-22T04:44:19.949Z,100143.25
2022-12-22T04:47:06.848Z,100133.63
2022-12-22T04:49:55.751Z,100064.50
2022-12-22T04:52:42.438Z,100131.19
2022-12-22T04:55:30.579Z,100118.31
2022-12-22T04:58:17.763Z,100119.03
2022-12-22T05:01:12.447Z,100109.06
2022-12-22T05:03:59.360Z,100102.94
2022-12-22T05:06:46.213Z,100110.06
2022-12-22T05:09:33.013Z,100097.69
2022-12-22T05:12:38.821Z,100095.69
2022-12-22T05:15:28.964Z,100092.53
2022-12-22T05:18:15.569Z,100090.19
2022-12-22T05:21:04.715Z,100087.72
2022-12-22T05:23:52.121Z,100093.22
2022-12-22T05:26:39.998Z,100085.59
2022-12-22T05:29:27.856Z,100079.38
2022-12-22T05:32:14.699Z,100066.09
2022-12-22T05:35:01.685Z,100066.13
2022-12-22T05:37:48.434Z,100066.72
2022-12-22T05:40:35.307Z,100067.75
2022-12-22T05:43:22.207Z,100070.16
2022-12-22T05:46:12.639Z,100057.97
2022-12-22T05:48:59.643Z,100060.28
2022-12-22T05:51:46.667Z,100053.53
2022-12-22T05:54:33.149Z,100049.13
2022-12-22T05:57:20.093Z,100044.75
2022-12-22T06:00:09.110Z,100038.72
2022-12-22T06:03:00.528Z,100034.09
2022-12-22T06:05:50.703Z,100041.84
2022-12-22T06:08:37.285Z,100029.69
2022-12-22T06:11:24.146Z,100035.81
2022-12-22T06:14:11.044Z,100028.94
2022-12-22T06:16:57.910Z,100032.13
2022-12-22T06:19:46.246Z,100022.63
2022-12-22T06:22:34.404Z,100023.75
2022-12-22T06:25:21.244Z,100023.56
2022-12-22T06:28:08.192Z,100014.97
2022-12-22T06:30:55.258Z,100007.94
2022-12-22T06:33:42.183Z,100009.50
2022-12-22T06:36:30.394Z,100006.94
2022-12-22T06:39:19.930Z,100004.22
2022-12-22T06:42:24.454Z,99994.34
2022-12-22T06:45:11.675Z,99983.84
2022-12-22T06:47:58.535Z,99990.72
2022-12-22T06:50:45.626Z,99994.13
2022-12-22T06:53:33.601Z,99987.13
2022-12-22T06:56:20.491Z,99984.22
2022-12-22T06:59:07.390Z,99969.31
2022-12-22T07:01:54.261Z,99977.94
2022-12-22T07:04:40.954Z,99979.91
2022-12-22T07:07:27.969Z,99983.41
2022-12-22T07:10:16.071Z,99981.56
2022-12-22T07:13:19.429Z,99986.78
2022-12-22T07:16:08.781Z,99980.53
2022-12-22T07:18:55.509Z,99979.50
2022-12-22T07:21:42.913Z,99978.41
2022-12-22T07:24:29.622Z,99966.16
2022-12-22T07:27:18.309Z,99978.41
2022-12-22T07:30:05.539Z,99964.25
2022-12-22T07:32:52.023Z,99970.47
2022-12-22T07:35:38.749Z,99959.28
2022-12-22T07:38:25.915Z,99953.16
2022-12-22T07:41:31.646Z,99949.84
2022-12-22T07:44:21.723Z,99940.91
2022-12-22T07:47:08.153Z,99937.72
2022-12-22T07:50:12.361Z,99936.25
2022-12-22T07:53:01.923Z,99939.06
2022-12-22T07:55:48.886Z,99930.78
2022-12-22T07:58:35.691Z,99937.94
2022-12-22T08:01:24.253Z,99936.78
2022-12-22T08:04:13.313Z,99931.38
2022-12-22T08:07:00.147Z,99922.75
2022-12-22T08:09:46.855Z,99922.00
2022-12-22T08:12:33.740Z,99926.13
2022-12-22T08:15:20.812Z,99927.00
2022-12-22T08:18:08.963Z,99929.97
2022-12-22T08:20:55.589Z,99926.44
2022-12-22T08:23:42.875Z,99892.75
2022-12-22T08:26:33.647Z,99914.81
2022-12-22T08:29:25.069Z,99910.47
2022-12-22T08:32:12.515Z,99904.47
2022-12-22T08:35:00.768Z,99900.50
2022-12-22T08:37:49.059Z,99894.50
2022-12-22T08:40:36.044Z,99898.03
2022-12-22T08:43:22.988Z,99890.28
2022-12-22T08:46:09.679Z,99893.50
2022-12-22T08:48:56.541Z,99893.50
2022-12-22T08:51:44.895Z,99886.34
2022-12-22T08:54:31.762Z,99891.78
2022-12-22T08:57:18.670Z,99875.19
2022-12-22T09:00:06.472Z,99882.06
2022-12-22T09:02:53.600Z,99892.31
2022-12-22T09:05:41.681Z,99887.91
2022-12-22T09:08:30.001Z,99883.47
2022-12-22T09:11:17.131Z,99883.28
2022-12-22T09:14:04.857Z,99876.94
2022-12-22T09:16:51.669Z,99877.97
2022-12-22T09:19:38.591Z,99876.25
2022-12-22T09:22:28.550Z,99872.72
2022-12-22T09:25:18.338Z,99867.44
2022-12-22T09:28:08.414Z,99864.63
2022-12-22T09:30:55.870Z,99852.97
2022-12-22T09:33:42.536Z,99850.94
2022-12-22T09:36:31.899Z,99855.50
2022-12-22T09:39:22.281Z,99853.03
2022-12-22T09:42:16.896Z,99849.22
2022-12-22T09:45:03.526Z,99852.53
2022-12-22T09:47:53.955Z,99852.06
2022-12-22T09:50:42.583Z,99849.75
2022-12-22T09:53:29.141Z,99842.16
2022-12-22T09:56:18.353Z,99836.88
2022-12-22T09:59:11.553Z,99834.50
2022-12-22T10:02:11.762Z,99829.84
2022-12-22T10:05:13.964Z,99827.75
2022-12-22T10:08:03.078Z,99819.09
2022-12-22T10:10:54.733Z,99812.88
2022-12-22T10:13:41.942Z,99813.47
2022-12-22T10:16:30.584Z,99821.09
2022-12-22T10:19:17.114Z,99814.22
2022-12-22T10:22:23.003Z,99817.44
2022-12-22T10:25:35.802Z,99813.94
2022-12-22T10:28:38.337Z,99818.47
2022-12-22T10:31:27.208Z,99812.28
2022-12-22T10:34:17.476Z,99803.31
2022-12-22T10:37:06.244Z,99801.91
2022-12-22T10:39:52.784Z,99793.34
2022-12-22T10:42:39.789Z,99791.91
2022-12-22T10:45:28.802Z,99792.81
2022-12-22T10:48:15.811Z,99794.09
2022-12-22T10:51:08.115Z,99785.88
2022-12-22T10:53:57.560Z,99784.38
2022-12-22T10:56:44.002Z,99787.06
2022-12-22T10:59:31.945Z,99773.81
2022-12-22T11:02:29.687Z,99769.50
2022-12-22T11:05:16.907Z,99780.72
2022-12-22T11:08:18.059Z,99775.94
2022-12-22T11:11:11.536Z,99769.19
2022-12-22T11:14:09.473Z,99766.00
2022-12-22T11:17:04.262Z,99770.41
2022-12-22T11:20:04.637Z,99770.66
2022-12-22T11:22:59.997Z,99758.09
2022-12-22T11:25:58.825Z,99759.31
2022-12-22T11:29:15.369Z,99754.41
2022-12-22T11:32:21.674Z,99753.22
2022-12-22T11:35:18.137Z,99744.28
2022-12-22T11:38:13.574Z,99749.94
2022-12-22T11:41:09.203Z,99746.63
2022-12-22T11:44:12.025Z,99742.25
2022-12-22T11:47:05.244Z,99735.69
2022-12-22T11:50:59.767Z,99741.28
2022-12-22T11:53:53.325Z,99733.50
2022-12-22T11:56:43.925Z,99717.63
2022-12-22T11:59:43.444Z,99736.06
2022-12-22T12:03:05.448Z,99730.19
2022-12-22T12:06:18.770Z,99728.69
2022-12-22T12:09:27.418Z,99726.16
2022-12-22T12:12:22.939Z,99718.59
2022-12-22T12:15:24.394Z,99723.44
2022-12-22T12:18:36.589Z,99721.66
2022-12-22T12:21:28.906Z,99726.00
2022-12-22T12:24:29.738Z,99720.91
2022-12-22T12:27:33.761Z,99723.53
2022-12-22T12:30:37.922Z,99727.94
2022-12-22T12:33:37.579Z,99721.06
2022-12-22T12:36:31.260Z,99720.16
2022-12-22T12:39:26.397Z,99721.72
2022-12-22T12:42:27.260Z,99727.25
2022-12-22T12:45:35.247Z,99727.50
2022-12-22T12:48:46.339Z,99727.25
2022-12-22T12:51:50.479Z,99705.03
2022-12-22T12:54:39.749Z,99712.88
2022-12-22T12:57:30.037Z,99712.25
2022-12-22T13:00:49.727Z,99716.50
2022-12-22T13:06:52.141Z,99693.59
2022-12-22T13:10:08.046Z,99716.13
2022-12-22T13:12:58.225Z,99714.34
2022-12-22T13:15:46.087Z,99717.22
2022-12-22T13:18:49.720Z,99716.47
2022-12-22T13:21:53.828Z,99688.19
2022-12-22T13:24:49.202Z,99726.66
2022-12-22T13:27:37.867Z,99734.03
2022-12-22T13:30:27.929Z,99723.66
2022-12-22T13:33:17.755Z,99743.97
2022-12-22T13:36:06.355Z,99737.75
2022-12-22T13:39:01.861Z,99740.38
2022-12-22T13:41:50.963Z,99741.56
2022-12-22T13:44:39.938Z,99748.59
2022-12-22T13:47:28.787Z,99751.19
2022-12-22T13:50:22.015Z,99751.28
2022-12-22T13:53:13.058Z,99748.53
2022-12-22T13:56:14.125Z,99744.69
2022-12-22T13:59:02.790Z,99754.47
2022-12-22T14:01:51.327Z,99697.84
2022-12-22T14:04:40.923Z,99759.13
2022-12-22T14:07:27.497Z,99771.13
2022-12-22T14:10:15.276Z,99767.59
2022-12-22T14:13:07.056Z,99769.09
2022-12-22T14:16:01.997Z,99768.59
2022-12-22T14:18:48.893Z,99771.13
2022-12-22T14:21:37.247Z,99775.59
2022-12-22T14:24:28.665Z,99775.75
2022-12-22T14:27:24.910Z,99779.34
2022-12-22T14:30:18.354Z,99779.13
2022-12-22T14:33:27.540Z,99792.59
2022-12-22T14:36:18.760Z,99792.53
2022-12-22T14:39:11.278Z,99801.03
2022-12-22T14:41:59.374Z,99794.69
2022-12-22T14:44:47.936Z,99800.78
2022-12-22T14:47:38.557Z,99803.25
2022-12-22T14:50:27.243Z,99809.50
2022-12-22T14:53:17.009Z,99809.31
2022-12-22T14:56:05.171Z,99800.50
2022-12-22T14:58:51.964Z,99818.59
2022-12-22T15:01:38.986Z,99823.00
2022-12-22T15:04:25.799Z,99827.53
2022-12-22T15:07:54.248Z,99831.84
2022-12-22T15:10:28.291Z,99833.81
2022-12-22T15:13:22.007Z,99814.66
2022-12-22T15:16:14.077Z,99834.94
2022-12-22T15:19:01.348Z,99831.44
2022-12-22T15:21:48.169Z,99833.16
2022-12-22T15:24:34.974Z,99836.38
2022-12-22T15:27:21.925Z,99840.16
2022-12-22T15:30:11.527Z,99844.16
2022-12-22T15:32:58.393Z,99852.81
2022-12-22T15:35:46.293Z,99856.38
2022-12-22T15:38:38.502Z,99859.44
2022-12-22T15:41:25.491Z,99871.69
2022-12-22T15:44:12.706Z,99864.91
2022-12-22T15:47:00.662Z,99873.66
2022-12-22T15:49:47.240Z,99873.53
2022-12-22T15:52:34.182Z,99877.25
2022-12-22T15:55:21.715Z,99879.94
2022-12-22T15:58:13.060Z,99885.09
2022-12-22T16:01:00.033Z,99892.31
2022-12-22T16:03:48.240Z,99892.50
2022-12-22T16:06:34.969Z,99904.00
2022-12-22T16:09:24.487Z,99905.78
2022-12-22T16:12:14.685Z,99905.78
2022-12-22T16:15:02.715Z,99921.72
2022-12-22T16:17:52.157Z,99934.19
2022-12-22T16:20:43.895Z,99930.53
2022-12-22T16:23:30.924Z,99935.06
2022-12-22T16:26:20.522Z,99934.03
2022-12-22T16:29:09.653Z,99937.78
2022-12-22T16:32:17.578Z,99937.19
2022-12-22T16:35:16.618Z,99947.72
2022-12-22T16:38:05.133Z,99952.16
2022-12-22T16:40:53.928Z,99964.50
2022-12-22T16:43:50.535Z,99959.19
2022-12-22T16:46:39.702Z,99979.00
2022-12-22T16:49:27.205Z,99971.94
2022-12-22T16:52:21.782Z,99961.31
2022-12-22T16:55:16.462Z,99974.53
2022-12-22T16:58:12.919Z,99949.53
2022-12-22T17:01:01.772Z,99971.91
2022-12-22T17:03:50.183Z,99980.72
2022-12-22T17:06:38.642Z,99952.91
2022-12-22T17:09:29.971Z,99981.81
2022-12-22T17:12:22.071Z,99997.91
2022-12-22T17:15:15.130Z,99999.78
2022-12-22T17:18:03.779Z,100007.81
2022-12-22T17:20:53.550Z,100008.44
2022-12-22T17:23:44.115Z,100021.13
2022-12-22T17:26:34.519Z,100021.78
2022-12-22T17:29:25.769Z,100029.38
2022-12-22T17:32:14.638Z,100027.47
2022-12-22T17:35:01.581Z,100024.41
2022-12-22T17:37:49.212Z,100017.41
2022-12-22T17:40:36.104Z,100018.72
2022-12-22T17:43:23.054Z,100018.31
2022-12-22T17:46:16.135Z,100011.06
2022-12-22T17:49:03.334Z,100019.03
2022-12-22T17:51:50.899Z,100023.84
2022-12-22T17:54:37.834Z,100022.06
2022-12-22T17:57:27.131Z,100025.91
2022-12-22T18:00:19.069Z,100030.25
2022-12-22T18:03:18.402Z,100030.34
2022-12-22T18:06:14.357Z,100031.25
2022-12-22T18:09:05.406Z,100033.72
2022-12-22T18:11:52.200Z,100038.63
2022-12-22T18:14:39.157Z,100042.97
2022-12-22T18:17:34.912Z,100048.03
2022-12-22T18:20:26.333Z,100049.91
2022-12-22T18:23:17.786Z,100056.72
2022-12-22T18:26:05.433Z,100057.44
2022-12-22T18:28:52.607Z,100053.38
2022-12-22T18:31:39.486Z,100052.91
2022-12-22T18:34:25.948Z,100059.16
2022-12-22T18:37:17.215Z,100066.09
2022-12-22T18:40:03.947Z,100058.66
2022-12-22T18:42:51.775Z,100063.97
2022-12-22T18:45:38.528Z,100058.50
2022-12-22T18:48:25.235Z,100058.75
2022-12-22T18:51:19.589Z,100059.69
2022-12-22T18:54:21.951Z,100073.59
2022-12-22T18:57:14.442Z,100061.00
2022-12-22T19:00:01.482Z,100056.56
2022-12-22T19:02:50.021Z,100057.41
2022-12-22T19:05:38.003Z,100060.06
2022-12-22T19:08:26.888Z,100066.41
2022-12-22T19:11:17.425Z,100066.88
2022-12-22T19:14:04.160Z,100067.63
2022-12-22T19:16:51.378Z,100062.22
2022-12-22T19:19:38.224Z,100068.94
2022-12-22T19:22:25.007Z,100014.78
2022-12-22T19:25:15.227Z,100081.25
2022-12-22T19:28:08.421Z,100077.78
2022-12-22T19:30:57.220Z,100075.63
2022-12-22T19:33:45.007Z,100073.63
2022-12-22T19:36:35.825Z,100067.25
2022-12-22T19:39:25.026Z,100072.28
2022-12-22T19:42:15.012Z,100069.97
2022-12-22T19:45:10.214Z,100083.19
2022-12-22T19:47:58.922Z,100081.72
2022-12-22T19:50:46.035Z,100079.59
2022-12-22T19:53:32.702Z,100081.50
2022-12-22T19:56:24.335Z,100072.22
2022-12-22T19:59:26.287Z,100068.63
2022-12-22T20:02:27.557Z,100066.88
2022-12-22T20:05:30.757Z,100060.25
2022-12-22T20:08:17.671Z,100058.09
2022-12-22T20:11:07.551Z,100057.66
2022-12-22T20:13:54.980Z,100065.69
2022-12-22T20:16:42.898Z,100057.53
2022-12-22T20:19:31.355Z,100059.41
2022-12-22T20:22:19.626Z,100048.50
2022-12-22T20:25:08.211Z,100047.91
2022-12-22T20:27:57.300Z,100053.97
2022-12-22T20:30:44.297Z,100063.69
2022-12-22T20:33:31.606Z,100068.16
2022-12-22T20:36:23.086Z,100069.84
2022-12-22T20:39:13.741Z,100071.88
2022-12-22T20:42:00.416Z,100075.25
2022-12-22T20:45:03.967Z,100068.50
2022-12-22T20:47:52.758Z,100014.06
2022-12-22T20:50:39.301Z,100070.19
2022-12-22T20:53:28.087Z,100070.47
2022-12-22T20:56:22.682Z,100080.16
2022-12-22T20:59:14.834Z,100080.31
2022-12-22T21:02:02.059Z,100073.94
2022-12-22T21:04:49.130Z,100068.50
2022-12-22T21:07:35.661Z,100073.56
2022-12-22T21:10:26.454Z,100066.84
2022-12-22T21:13:14.063Z,100067.31
2022-12-22T21:16:00.523Z,100074.19
2022-12-22T21:18:47.755Z,100051.66
2022-12-22T21:21:34.881Z,100066.81
2022-12-22T21:24:21.741Z,100075.03
2022-12-22T21:27:18.344Z,100067.28
2022-12-22T21:30:05.458Z,100065.81
2022-12-22T21:32:53.251Z,100061.72
2022-12-22T21:35:41.715Z,100067.09
2022-12-22T21:38:32.927Z,100060.84
2022-12-22T21:41:19.626Z,100066.75
2022-12-22T21:44:08.658Z,100058.22
2022-12-22T21:46:56.025Z,100054.19
2022-12-22T21:49:43.703Z,100056.22
2022-12-22T21:52:31.145Z,100064.88
2022-12-22T21:55:20.176Z,100066.84
2022-12-22T21:58:09.464Z,100062.97
2022-12-22T22:00:58.233Z,100068.28
2022-12-22T22:03:45.749Z,100067.09
2022-12-22T22:06:33.108Z,100057.19
2022-12-22T22:09:22.855Z,100051.53
2022-12-22T22:12:29.358Z,100050.38
2022-12-22T22:15:16.990Z,100042.56
2022-12-22T22:18:07.460Z,100048.81
2022-12-22T22:20:56.075Z,100060.31
2022-12-22T22:23:43.951Z,100055.13
2022-12-22T22:26:31.461Z,100056.00
2022-12-22T22:29:18.831Z,100053.31
2022-12-22T22:32:07.219Z,100055.91
2022-12-22T22:34:56.192Z,100058.28
2022-12-22T22:37:46.108Z,100052.84
2022-12-22T22:40:33.604Z,100053.44
2022-12-22T22:43:21.114Z,100060.31
2022-12-22T22:46:07.980Z,100050.84
2022-12-22T22:48:55.855Z,100038.91
2022-12-22T22:51:44.298Z,99981.75
2022-12-22T22:54:31.322Z,100040.38
2022-12-22T22:57:18.215Z,100033.53
2022-12-22T23:00:07.342Z,100041.84
2022-12-22T23:02:54.178Z,100039.16
2022-12-22T23:05:41.189Z,100044.44
2022-12-22T23:08:30.665Z,100037.56
2022-12-22T23:11:18.538Z,100036.41
2022-12-22T23:14:05.849Z,99967.19
2022-12-22T23:16:53.123Z,100028.66
2022-12-22T23:19:40.303Z,100031.41
2022-12-22T23:22:27.282Z,100030.47
2022-12-22T23:25:15.543Z,100027.00
2022-12-22T23:28:02.509Z,100020.03
2022-12-22T23:30:51.387Z,100014.69
2022-12-22T23:33:38.938Z,100012.59
2022-12-22T23:36:26.197Z,100015.53
2022-12-22T23:39:13.277Z,100005.97
2022-12-22T23:42:01.161Z,99997.09
2022-12-22T23:44:49.300Z,99990.06
2022-12-22T23:47:35.853Z,99991.03
2022-12-22T23:50:22.753Z,99939.25
2022-12-22T23:53:09.319Z,99984.19
2022-12-22T23:55:56.670Z,99981.56
2022-12-22T23:58:49.471Z,99979.16
